sensor_id;sensor_type;location;lat;lon;timestamp;P1;durP1;ratioP1;P2;durP2;ratioP2
23494;SDS011;26107;50.832;2.950;2023-07-20T00:28:00;12.25;;;5.03;;
23494;SDS011;26107;50.832;2.950;2023-07-20T00:43:01;11.48;;;5.25;;
23494;SDS011;26107;50.832;2.950;2023-07-20T00:58:05;16.90;;;6.38;;
23494;SDS011;26107;50.832;2.950;2023-07-20T01:13:07;10.77;;;5.85;;
23494;SDS011;26107;50.832;2.950;2023-07-20T01:28:30;13.35;;;6.18;;
23494;SDS011;26107;50.832;2.950;2023-07-20T01:43:52;16.42;;;6.22;;
23494;SDS011;26107;50.832;2.950;2023-07-20T02:58:56;7.38;;;4.97;;
23494;SDS011;26107;50.832;2.950;2023-07-20T03:59:00;9.55;;;5.35;;
23494;SDS011;26107;50.832;2.950;2023-07-20T04:14:03;6.83;;;4.67;;
23494;SDS011;26107;50.832;2.950;2023-07-20T04:29:03;7.30;;;4.65;;
23494;SDS011;26107;50.832;2.950;2023-07-20T05:14:05;7.07;;;5.50;;
23494;SDS011;26107;50.832;2.950;2023-07-20T05:29:08;7.78;;;5.00;;
23494;SDS011;26107;50.832;2.950;2023-07-20T05:59:09;6.80;;;4.63;;
23494;SDS011;26107;50.832;2.950;2023-07-20T06:14:10;8.35;;;5.18;;
23494;SDS011;26107;50.832;2.950;2023-07-20T06:44:13;5.15;;;4.25;;
23494;SDS011;26107;50.832;2.950;2023-07-20T07:14:14;7.03;;;4.95;;
23494;SDS011;26107;50.832;2.950;2023-07-20T07:29:17;9.00;;;5.70;;
23494;SDS011;26107;50.832;2.950;2023-07-20T07:44:18;7.32;;;4.60;;
23494;SDS011;26107;50.832;2.950;2023-07-20T07:59:21;7.10;;;4.53;;
23494;SDS011;26107;50.832;2.950;2023-07-20T08:14:22;5.70;;;4.82;;
23494;SDS011;26107;50.832;2.950;2023-07-20T08:29:23;8.40;;;6.30;;
23494;SDS011;26107;50.832;2.950;2023-07-20T08:44:24;9.15;;;6.90;;
23494;SDS011;26107;50.832;2.950;2023-07-20T08:59:28;8.60;;;6.45;;
23494;SDS011;26107;50.832;2.950;2023-07-20T09:14:33;9.75;;;5.88;;
23494;SDS011;26107;50.832;2.950;2023-07-20T09:29:47;6.90;;;4.38;;
23494;SDS011;26107;50.832;2.950;2023-07-20T09:44:49;6.53;;;3.85;;
23494;SDS011;26107;50.832;2.950;2023-07-20T09:59:51;4.97;;;4.47;;
23494;SDS011;26107;50.832;2.950;2023-07-20T10:30:28;3.10;;;2.80;;
23494;SDS011;26107;50.832;2.950;2023-07-20T11:30:56;4.25;;;2.33;;
23494;SDS011;26107;50.832;2.950;2023-07-20T11:45:59;2.53;;;1.70;;
23494;SDS011;26107;50.832;2.950;2023-07-20T12:01:00;5.38;;;2.75;;
23494;SDS011;26107;50.832;2.950;2023-07-20T12:16:16;5.50;;;3.65;;
23494;SDS011;26107;50.832;2.950;2023-07-20T12:31:17;5.25;;;3.63;;
23494;SDS011;26107;50.832;2.950;2023-07-20T12:46:21;4.80;;;3.20;;
23494;SDS011;26107;50.832;2.950;2023-07-20T13:01:24;5.38;;;4.38;;
23494;SDS011;26107;50.832;2.950;2023-07-20T13:16:27;8.18;;;6.40;;
23494;SDS011;26107;50.832;2.950;2023-07-20T13:31:34;7.50;;;6.13;;
23494;SDS011;26107;50.832;2.950;2023-07-20T14:01:35;3.53;;;3.22;;
23494;SDS011;26107;50.832;2.950;2023-07-20T14:16:36;2.53;;;2.33;;
23494;SDS011;26107;50.832;2.950;2023-07-20T14:31:38;2.80;;;2.30;;
23494;SDS011;26107;50.832;2.950;2023-07-20T14:46:39;2.40;;;2.20;;
23494;SDS011;26107;50.832;2.950;2023-07-20T15:01:40;5.32;;;2.80;;
23494;SDS011;26107;50.832;2.950;2023-07-20T15:16:40;2.10;;;1.90;;
23494;SDS011;26107;50.832;2.950;2023-07-20T15:31:43;4.43;;;2.65;;
23494;SDS011;26107;50.832;2.950;2023-07-20T15:46:45;2.85;;;2.58;;
23494;SDS011;26107;50.832;2.950;2023-07-20T16:01:48;3.50;;;2.67;;
23494;SDS011;26107;50.832;2.950;2023-07-20T16:16:54;3.45;;;2.80;;
23494;SDS011;26107;50.832;2.950;2023-07-20T16:31:57;2.60;;;2.40;;
23494;SDS011;26107;50.832;2.950;2023-07-20T16:46:58;3.17;;;1.73;;
23494;SDS011;26107;50.832;2.950;2023-07-20T17:02:01;2.65;;;2.03;;
23494;SDS011;26107;50.832;2.950;2023-07-20T17:17:04;2.30;;;2.00;;
23494;SDS011;26107;50.832;2.950;2023-07-20T17:32:07;1.87;;;1.70;;
23494;SDS011;26107;50.832;2.950;2023-07-20T17:47:10;3.13;;;1.60;;
23494;SDS011;26107;50.832;2.950;2023-07-20T18:02:13;1.97;;;1.50;;
23494;SDS011;26107;50.832;2.950;2023-07-20T18:17:14;2.10;;;1.58;;
23494;SDS011;26107;50.832;2.950;2023-07-20T18:32:15;4.90;;;2.63;;
23494;SDS011;26107;50.832;2.950;2023-07-20T18:47:16;2.78;;;2.20;;
23494;SDS011;26107;50.832;2.950;2023-07-20T19:02:16;1.88;;;1.77;;
23494;SDS011;26107;50.832;2.950;2023-07-20T19:17:17;3.67;;;2.63;;
23494;SDS011;26107;50.832;2.950;2023-07-20T19:32:24;3.78;;;2.40;;
23494;SDS011;26107;50.832;2.950;2023-07-20T19:47:24;4.03;;;2.60;;
23494;SDS011;26107;50.832;2.950;2023-07-20T20:02:25;2.60;;;2.38;;
23494;SDS011;26107;50.832;2.950;2023-07-20T20:17:26;4.22;;;3.00;;
23494;SDS011;26107;50.832;2.950;2023-07-20T20:32:27;4.50;;;3.57;;
23494;SDS011;26107;50.832;2.950;2023-07-20T20:47:27;5.43;;;2.75;;
23494;SDS011;26107;50.832;2.950;2023-07-20T21:02:29;4.35;;;2.58;;
23494;SDS011;26107;50.832;2.950;2023-07-20T21:17:33;5.50;;;4.13;;
23494;SDS011;26107;50.832;2.950;2023-07-20T21:32:34;4.22;;;3.78;;
23494;SDS011;26107;50.832;2.950;2023-07-20T21:47:36;6.10;;;5.10;;
23494;SDS011;26107;50.832;2.950;2023-07-20T22:02:36;5.13;;;4.63;;
23494;SDS011;26107;50.832;2.950;2023-07-20T22:17:37;6.75;;;5.75;;
23494;SDS011;26107;50.832;2.950;2023-07-20T22:32:38;11.32;;;7.15;;
23494;SDS011;26107;50.832;2.950;2023-07-20T22:47:41;8.30;;;5.75;;
23494;SDS011;26107;50.832;2.950;2023-07-20T23:02:42;8.27;;;5.65;;
23494;SDS011;26107;50.832;2.950;2023-07-20T23:17:43;8.85;;;6.20;;
23494;SDS011;26107;50.832;2.950;2023-07-20T23:32:47;9.60;;;8.05;;
23494;SDS011;26107;50.832;2.950;2023-07-20T23:47:52;12.77;;;7.90;;
